sensor_id;sensor_type;location;lat;lon;timestamp;P1;durP1;ratioP1;P2;durP2;ratioP2
6452;SDS011;3259;51.080;13.712;2022-09-21T00:01:04;1.38;;;1.27;;
6452;SDS011;3259;51.080;13.712;2022-09-21T00:03:53;2.47;;;1.00;;
6452;SDS011;3259;51.080;13.712;2022-09-21T00:06:44;1.33;;;1.23;;
6452;SDS011;3259;51.080;13.712;2022-09-21T00:09:33;4.43;;;0.98;;
6452;SDS011;3259;51.080;13.712;2022-09-21T00:12:21;0.90;;;0.90;;
6452;SDS011;3259;51.080;13.712;2022-09-21T00:15:10;1.38;;;1.20;;
6452;SDS011;3259;51.080;13.712;2022-09-21T00:17:58;2.90;;;1.20;;
6452;SDS011;3259;51.080;13.712;2022-09-21T00:20:49;0.60;;;0.60;;
6452;SDS011;3259;51.080;13.712;2022-09-21T00:23:42;1.00;;;1.00;;
6452;SDS011;3259;51.080;13.712;2022-09-21T00:26:31;1.23;;;1.13;;
6452;SDS011;3259;51.080;13.712;2022-09-21T00:29:20;2.20;;;0.98;;
6452;SDS011;3259;51.080;13.712;2022-09-21T00:32:09;2.33;;;1.20;;
6452;SDS011;3259;51.080;13.712;2022-09-21T00:34:58;1.08;;;0.90;;
6452;SDS011;3259;51.080;13.712;2022-09-21T00:37:48;1.45;;;1.10;;
6452;SDS011;3259;51.080;13.712;2022-09-21T00:40:38;0.82;;;0.82;;
6452;SDS011;3259;51.080;13.712;2022-09-21T00:43:26;1.10;;;0.85;;
6452;SDS011;3259;51.080;13.712;2022-09-21T00:46:17;1.08;;;0.95;;
6452;SDS011;3259;51.080;13.712;2022-09-21T00:49:10;0.82;;;0.82;;
6452;SDS011;3259;51.080;13.712;2022-09-21T00:51:58;2.00;;;0.90;;
6452;SDS011;3259;51.080;13.712;2022-09-21T00:54:50;1.17;;;1.00;;
6452;SDS011;3259;51.080;13.712;2022-09-21T00:57:41;1.23;;;1.13;;
6452;SDS011;3259;51.080;13.712;2022-09-21T01:00:29;0.65;;;0.65;;
6452;SDS011;3259;51.080;13.712;2022-09-21T01:03:18;1.02;;;1.00;;
6452;SDS011;3259;51.080;13.712;2022-09-21T01:06:06;0.80;;;0.80;;
6452;SDS011;3259;51.080;13.712;2022-09-21T01:08:55;0.88;;;0.88;;
6452;SDS011;3259;51.080;13.712;2022-09-21T01:11:47;0.82;;;0.70;;
6452;SDS011;3259;51.080;13.712;2022-09-21T01:14:47;0.60;;;0.60;;
6452;SDS011;3259;51.080;13.712;2022-09-21T01:17:42;2.03;;;0.65;;
6452;SDS011;3259;51.080;13.712;2022-09-21T01:20:43;0.50;;;0.50;;
6452;SDS011;3259;51.080;13.712;2022-09-21T01:23:59;1.45;;;0.80;;
6452;SDS011;3259;51.080;13.712;2022-09-21T01:27:00;0.50;;;0.50;;
6452;SDS011;3259;51.080;13.712;2022-09-21T01:30:10;0.60;;;0.60;;
6452;SDS011;3259;51.080;13.712;2022-09-21T01:33:02;0.40;;;0.40;;
6452;SDS011;3259;51.080;13.712;2022-09-21T01:35:53;0.73;;;0.73;;
6452;SDS011;3259;51.080;13.712;2022-09-21T01:38:44;0.60;;;0.60;;
6452;SDS011;3259;51.080;13.712;2022-09-21T01:41:36;0.57;;;0.57;;
6452;SDS011;3259;51.080;13.712;2022-09-21T01:44:26;0.40;;;0.40;;
6452;SDS011;3259;51.080;13.712;2022-09-21T01:47:20;0.55;;;0.55;;
6452;SDS011;3259;51.080;13.712;2022-09-21T01:50:09;0.40;;;0.30;;
6452;SDS011;3259;51.080;13.712;2022-09-21T01:52:59;0.70;;;0.45;;
6452;SDS011;3259;51.080;13.712;2022-09-21T01:55:50;0.30;;;0.30;;
6452;SDS011;3259;51.080;13.712;2022-09-21T01:58:41;0.38;;;0.38;;
6452;SDS011;3259;51.080;13.712;2022-09-21T02:01:33;2.53;;;0.50;;
6452;SDS011;3259;51.080;13.712;2022-09-21T02:04:25;0.50;;;0.50;;
6452;SDS011;3259;51.080;13.712;2022-09-21T02:07:16;0.40;;;0.28;;
6452;SDS011;3259;51.080;13.712;2022-09-21T02:10:06;0.70;;;0.38;;
6452;SDS011;3259;51.080;13.712;2022-09-21T02:12:57;0.50;;;0.50;;
6452;SDS011;3259;51.080;13.712;2022-09-21T02:15:52;2.22;;;0.70;;
6452;SDS011;3259;51.080;13.712;2022-09-21T02:18:51;0.50;;;0.50;;
6452;SDS011;3259;51.080;13.712;2022-09-21T02:21:47;0.30;;;0.30;;
6452;SDS011;3259;51.080;13.712;2022-09-21T02:24:39;0.55;;;0.38;;
6452;SDS011;3259;51.080;13.712;2022-09-21T02:27:30;1.05;;;0.47;;
6452;SDS011;3259;51.080;13.712;2022-09-21T02:30:21;0.47;;;0.47;;
6452;SDS011;3259;51.080;13.712;2022-09-21T02:33:11;0.68;;;0.68;;
6452;SDS011;3259;51.080;13.712;2022-09-21T02:36:04;0.57;;;0.38;;
6452;SDS011;3259;51.080;13.712;2022-09-21T02:38:58;0.57;;;0.50;;
6452;SDS011;3259;51.080;13.712;2022-09-21T02:41:51;0.30;;;0.30;;
6452;SDS011;3259;51.080;13.712;2022-09-21T02:44:49;0.50;;;0.50;;
6452;SDS011;3259;51.080;13.712;2022-09-21T02:47:41;0.13;;;0.13;;
6452;SDS011;3259;51.080;13.712;2022-09-21T02:50:34;0.47;;;0.25;;
6452;SDS011;3259;51.080;13.712;2022-09-21T02:53:27;0.40;;;0.40;;
6452;SDS011;3259;51.080;13.712;2022-09-21T02:56:19;0.47;;;0.40;;
6452;SDS011;3259;51.080;13.712;2022-09-21T02:59:07;0.32;;;0.32;;
6452;SDS011;3259;51.080;13.712;2022-09-21T03:01:57;0.38;;;0.20;;
6452;SDS011;3259;51.080;13.712;2022-09-21T03:04:46;0.30;;;0.30;;
6452;SDS011;3259;51.080;13.712;2022-09-21T03:07:35;0.32;;;0.32;;
6452;SDS011;3259;51.080;13.712;2022-09-21T03:10:24;0.82;;;0.50;;
6452;SDS011;3259;51.080;13.712;2022-09-21T03:13:14;0.90;;;0.50;;
6452;SDS011;3259;51.080;13.712;2022-09-21T03:16:04;0.47;;;0.47;;
6452;SDS011;3259;51.080;13.712;2022-09-21T03:18:53;1.05;;;0.30;;
6452;SDS011;3259;51.080;13.712;2022-09-21T03:21:42;0.65;;;0.50;;
6452;SDS011;3259;51.080;13.712;2022-09-21T03:24:30;0.50;;;0.50;;
6452;SDS011;3259;51.080;13.712;2022-09-21T03:27:32;2.65;;;0.50;;
6452;SDS011;3259;51.080;13.712;2022-09-21T03:30:23;1.58;;;0.50;;
6452;SDS011;3259;51.080;13.712;2022-09-21T03:33:12;0.40;;;0.40;;
6452;SDS011;3259;51.080;13.712;2022-09-21T03:36:01;0.50;;;0.50;;
6452;SDS011;3259;51.080;13.712;2022-09-21T03:38:49;3.20;;;0.47;;
6452;SDS011;3259;51.080;13.712;2022-09-21T03:41:38;3.40;;;0.57;;
6452;SDS011;3259;51.080;13.712;2022-09-21T03:44:29;1.10;;;0.65;;
6452;SDS011;3259;51.080;13.712;2022-09-21T03:47:18;0.90;;;0.60;;
6452;SDS011;3259;51.080;13.712;2022-09-21T03:50:08;0.82;;;0.47;;
6452;SDS011;3259;51.080;13.712;2022-09-21T03:52:56;1.05;;;0.82;;
6452;SDS011;3259;51.080;13.712;2022-09-21T03:55:45;0.80;;;0.57;;
6452;SDS011;3259;51.080;13.712;2022-09-21T03:58:33;0.50;;;0.40;;
6452;SDS011;3259;51.080;13.712;2022-09-21T04:01:22;0.90;;;0.45;;
6452;SDS011;3259;51.080;13.712;2022-09-21T04:04:12;1.45;;;0.47;;
6452;SDS011;3259;51.080;13.712;2022-09-21T04:07:02;1.08;;;0.47;;
6452;SDS011;3259;51.080;13.712;2022-09-21T04:09:51;2.33;;;0.55;;
6452;SDS011;3259;51.080;13.712;2022-09-21T04:12:40;0.30;;;0.30;;
6452;SDS011;3259;51.080;13.712;2022-09-21T04:15:29;0.88;;;0.30;;
6452;SDS011;3259;51.080;13.712;2022-09-21T04:18:18;2.38;;;0.57;;
6452;SDS011;3259;51.080;13.712;2022-09-21T04:21:08;1.45;;;0.60;;
6452;SDS011;3259;51.080;13.712;2022-09-21T04:23:57;2.88;;;1.00;;
6452;SDS011;3259;51.080;13.712;2022-09-21T04:26:46;1.17;;;0.80;;
6452;SDS011;3259;51.080;13.712;2022-09-21T04:29:34;2.55;;;0.80;;
6452;SDS011;3259;51.080;13.712;2022-09-21T04:32:23;1.40;;;0.63;;
6452;SDS011;3259;51.080;13.712;2022-09-21T04:35:11;0.88;;;0.70;;
6452;SDS011;3259;51.080;13.712;2022-09-21T04:38:01;0.77;;;0.50;;
6452;SDS011;3259;51.080;13.712;2022-09-21T04:40:54;1.40;;;0.63;;
6452;SDS011;3259;51.080;13.712;2022-09-21T04:43:45;0.98;;;0.82;;
6452;SDS011;3259;51.080;13.712;2022-09-21T04:46:34;1.75;;;0.73;;
6452;SDS011;3259;51.080;13.712;2022-09-21T04:49:23;3.33;;;0.60;;
6452;SDS011;3259;51.080;13.712;2022-09-21T04:52:12;10.48;;;1.40;;
6452;SDS011;3259;51.080;13.712;2022-09-21T04:55:06;11.25;;;2.00;;
6452;SDS011;3259;51.080;13.712;2022-09-21T04:57:55;13.32;;;1.75;;
6452;SDS011;3259;51.080;13.712;2022-09-21T05:00:43;10.40;;;1.85;;
6452;SDS011;3259;51.080;13.712;2022-09-21T05:03:32;7.30;;;1.42;;
6452;SDS011;3259;51.080;13.712;2022-09-21T05:06:21;11.00;;;1.40;;
6452;SDS011;3259;51.080;13.712;2022-09-21T05:09:09;4.45;;;1.20;;
6452;SDS011;3259;51.080;13.712;2022-09-21T05:12:31;7.78;;;1.30;;
6452;SDS011;3259;51.080;13.712;2022-09-21T05:15:26;9.13;;;1.80;;
6452;SDS011;3259;51.080;13.712;2022-09-21T05:18:14;5.75;;;1.60;;
6452;SDS011;3259;51.080;13.712;2022-09-21T05:21:03;7.25;;;0.90;;
6452;SDS011;3259;51.080;13.712;2022-09-21T05:23:53;6.35;;;1.38;;
6452;SDS011;3259;51.080;13.712;2022-09-21T05:26:42;7.32;;;1.48;;
6452;SDS011;3259;51.080;13.712;2022-09-21T05:29:32;1.08;;;0.98;;
6452;SDS011;3259;51.080;13.712;2022-09-21T05:32:22;1.88;;;1.20;;
6452;SDS011;3259;51.080;13.712;2022-09-21T05:35:15;5.50;;;1.15;;
6452;SDS011;3259;51.080;13.712;2022-09-21T05:38:09;3.03;;;1.02;;
6452;SDS011;3259;51.080;13.712;2022-09-21T05:41:00;4.75;;;1.33;;
6452;SDS011;3259;51.080;13.712;2022-09-21T05:43:49;2.85;;;0.88;;
6452;SDS011;3259;51.080;13.712;2022-09-21T05:46:40;3.97;;;1.13;;
6452;SDS011;3259;51.080;13.712;2022-09-21T05:49:32;2.45;;;0.90;;
6452;SDS011;3259;51.080;13.712;2022-09-21T05:52:29;2.42;;;0.98;;
6452;SDS011;3259;51.080;13.712;2022-09-21T05:55:23;2.45;;;0.50;;
6452;SDS011;3259;51.080;13.712;2022-09-21T05:58:16;1.85;;;0.50;;
6452;SDS011;3259;51.080;13.712;2022-09-21T06:01:14;1.38;;;0.90;;
6452;SDS011;3259;51.080;13.712;2022-09-21T06:04:10;1.00;;;0.85;;
6452;SDS011;3259;51.080;13.712;2022-09-21T06:06:59;0.85;;;0.82;;
6452;SDS011;3259;51.080;13.712;2022-09-21T06:09:47;1.85;;;1.15;;
6452;SDS011;3259;51.080;13.712;2022-09-21T06:12:35;1.45;;;0.60;;
6452;SDS011;3259;51.080;13.712;2022-09-21T06:15:24;1.13;;;1.02;;
6452;SDS011;3259;51.080;13.712;2022-09-21T06:18:13;3.75;;;0.75;;
6452;SDS011;3259;51.080;13.712;2022-09-21T06:21:05;5.35;;;1.00;;
6452;SDS011;3259;51.080;13.712;2022-09-21T06:23:54;0.93;;;0.80;;
6452;SDS011;3259;51.080;13.712;2022-09-21T06:26:42;3.53;;;0.63;;
6452;SDS011;3259;51.080;13.712;2022-09-21T06:29:31;2.22;;;0.50;;
6452;SDS011;3259;51.080;13.712;2022-09-21T06:32:19;1.38;;;0.95;;
6452;SDS011;3259;51.080;13.712;2022-09-21T06:35:08;2.10;;;0.57;;
6452;SDS011;3259;51.080;13.712;2022-09-21T06:37:58;0.40;;;0.40;;
6452;SDS011;3259;51.080;13.712;2022-09-21T06:40:47;1.02;;;0.40;;
6452;SDS011;3259;51.080;13.712;2022-09-21T06:43:36;1.85;;;0.82;;
6452;SDS011;3259;51.080;13.712;2022-09-21T06:46:24;1.30;;;0.95;;
6452;SDS011;3259;51.080;13.712;2022-09-21T06:49:13;0.77;;;0.75;;
6452;SDS011;3259;51.080;13.712;2022-09-21T06:52:01;1.55;;;0.57;;
6452;SDS011;3259;51.080;13.712;2022-09-21T06:54:53;2.28;;;0.50;;
6452;SDS011;3259;51.080;13.712;2022-09-21T06:57:42;0.93;;;0.65;;
6452;SDS011;3259;51.080;13.712;2022-09-21T07:00:30;1.48;;;0.57;;
6452;SDS011;3259;51.080;13.712;2022-09-21T07:03:20;0.77;;;0.77;;
6452;SDS011;3259;51.080;13.712;2022-09-21T07:06:09;0.77;;;0.50;;
6452;SDS011;3259;51.080;13.712;2022-09-21T07:09:01;0.73;;;0.73;;
6452;SDS011;3259;51.080;13.712;2022-09-21T07:12:10;0.63;;;0.40;;
6452;SDS011;3259;51.080;13.712;2022-09-21T07:15:00;2.72;;;0.52;;
6452;SDS011;3259;51.080;13.712;2022-09-21T07:17:48;1.77;;;0.57;;
6452;SDS011;3259;51.080;13.712;2022-09-21T07:20:38;7.00;;;0.77;;
6452;SDS011;3259;51.080;13.712;2022-09-21T07:23:27;4.75;;;0.38;;
6452;SDS011;3259;51.080;13.712;2022-09-21T07:26:15;0.50;;;0.50;;
6452;SDS011;3259;51.080;13.712;2022-09-21T07:29:05;2.30;;;0.50;;
6452;SDS011;3259;51.080;13.712;2022-09-21T07:31:54;0.77;;;0.57;;
6452;SDS011;3259;51.080;13.712;2022-09-21T07:34:42;0.65;;;0.50;;
6452;SDS011;3259;51.080;13.712;2022-09-21T07:37:32;1.65;;;0.57;;
6452;SDS011;3259;51.080;13.712;2022-09-21T07:40:21;3.20;;;0.52;;
6452;SDS011;3259;51.080;13.712;2022-09-21T07:43:11;0.68;;;0.68;;
6452;SDS011;3259;51.080;13.712;2022-09-21T07:46:00;1.35;;;0.43;;
6452;SDS011;3259;51.080;13.712;2022-09-21T07:48:51;0.85;;;0.35;;
6452;SDS011;3259;51.080;13.712;2022-09-21T07:51:40;1.20;;;0.55;;
6452;SDS011;3259;51.080;13.712;2022-09-21T07:54:29;1.85;;;0.43;;
6452;SDS011;3259;51.080;13.712;2022-09-21T07:57:19;0.63;;;0.43;;
6452;SDS011;3259;51.080;13.712;2022-09-21T08:00:25;0.55;;;0.55;;
6452;SDS011;3259;51.080;13.712;2022-09-21T08:03:19;3.20;;;0.47;;
6452;SDS011;3259;51.080;13.712;2022-09-21T08:06:08;2.85;;;0.47;;
6452;SDS011;3259;51.080;13.712;2022-09-21T08:08:56;1.42;;;0.55;;
6452;SDS011;3259;51.080;13.712;2022-09-21T08:11:45;2.15;;;0.77;;
6452;SDS011;3259;51.080;13.712;2022-09-21T08:14:33;0.60;;;0.60;;
6452;SDS011;3259;51.080;13.712;2022-09-21T08:17:22;3.30;;;0.60;;
6452;SDS011;3259;51.080;13.712;2022-09-21T08:20:12;1.23;;;0.60;;
6452;SDS011;3259;51.080;13.712;2022-09-21T08:23:00;2.08;;;0.60;;
6452;SDS011;3259;51.080;13.712;2022-09-21T08:25:49;1.58;;;1.10;;
6452;SDS011;3259;51.080;13.712;2022-09-21T08:28:38;0.57;;;0.50;;
6452;SDS011;3259;51.080;13.712;2022-09-21T08:31:26;1.30;;;0.43;;
6452;SDS011;3259;51.080;13.712;2022-09-21T08:34:16;0.90;;;0.55;;
6452;SDS011;3259;51.080;13.712;2022-09-21T08:37:06;2.25;;;0.57;;
6452;SDS011;3259;51.080;13.712;2022-09-21T08:39:55;1.15;;;0.40;;
6452;SDS011;3259;51.080;13.712;2022-09-21T08:42:44;1.95;;;0.95;;
6452;SDS011;3259;51.080;13.712;2022-09-21T08:45:40;2.05;;;0.63;;
6452;SDS011;3259;51.080;13.712;2022-09-21T08:48:30;1.42;;;0.70;;
6452;SDS011;3259;51.080;13.712;2022-09-21T08:51:24;0.52;;;0.50;;
6452;SDS011;3259;51.080;13.712;2022-09-21T08:54:18;0.45;;;0.40;;
6452;SDS011;3259;51.080;13.712;2022-09-21T08:57:10;1.45;;;0.52;;
6452;SDS011;3259;51.080;13.712;2022-09-21T09:00:00;0.77;;;0.68;;
6452;SDS011;3259;51.080;13.712;2022-09-21T09:03:04;0.75;;;0.73;;
6452;SDS011;3259;51.080;13.712;2022-09-21T09:06:18;0.77;;;0.30;;
6452;SDS011;3259;51.080;13.712;2022-09-21T09:12:28;1.38;;;0.40;;
6452;SDS011;3259;51.080;13.712;2022-09-21T09:15:29;1.40;;;0.60;;
6452;SDS011;3259;51.080;13.712;2022-09-21T09:18:28;2.50;;;0.50;;
6452;SDS011;3259;51.080;13.712;2022-09-21T09:21:27;0.57;;;0.50;;
6452;SDS011;3259;51.080;13.712;2022-09-21T09:24:23;0.63;;;0.30;;
6452;SDS011;3259;51.080;13.712;2022-09-21T09:27:21;2.25;;;1.08;;
6452;SDS011;3259;51.080;13.712;2022-09-21T09:30:14;0.45;;;0.32;;
6452;SDS011;3259;51.080;13.712;2022-09-21T09:33:05;8.32;;;0.35;;
6452;SDS011;3259;51.080;13.712;2022-09-21T09:35:57;1.58;;;0.80;;
6452;SDS011;3259;51.080;13.712;2022-09-21T09:38:51;2.55;;;0.73;;
6452;SDS011;3259;51.080;13.712;2022-09-21T09:41:49;1.15;;;0.60;;
6452;SDS011;3259;51.080;13.712;2022-09-21T09:45:02;0.82;;;0.50;;
6452;SDS011;3259;51.080;13.712;2022-09-21T09:48:17;0.98;;;0.60;;
6452;SDS011;3259;51.080;13.712;2022-09-21T09:51:13;1.00;;;0.77;;
6452;SDS011;3259;51.080;13.712;2022-09-21T09:54:02;1.23;;;0.55;;
6452;SDS011;3259;51.080;13.712;2022-09-21T09:56:55;1.05;;;0.60;;
6452;SDS011;3259;51.080;13.712;2022-09-21T09:59:45;1.25;;;0.57;;
6452;SDS011;3259;51.080;13.712;2022-09-21T10:02:46;0.47;;;0.47;;
6452;SDS011;3259;51.080;13.712;2022-09-21T10:05:35;1.65;;;0.52;;
6452;SDS011;3259;51.080;13.712;2022-09-21T10:08:37;1.05;;;0.70;;
6452;SDS011;3259;51.080;13.712;2022-09-21T10:11:34;0.40;;;0.40;;
6452;SDS011;3259;51.080;13.712;2022-09-21T10:14:24;0.43;;;0.43;;
6452;SDS011;3259;51.080;13.712;2022-09-21T10:17:16;0.35;;;0.35;;
6452;SDS011;3259;51.080;13.712;2022-09-21T10:20:13;0.80;;;0.50;;
6452;SDS011;3259;51.080;13.712;2022-09-21T10:23:03;1.70;;;0.50;;
6452;SDS011;3259;51.080;13.712;2022-09-21T10:25:53;1.20;;;0.45;;
6452;SDS011;3259;51.080;13.712;2022-09-21T10:28:53;0.57;;;0.40;;
6452;SDS011;3259;51.080;13.712;2022-09-21T10:31:52;1.65;;;0.30;;
6452;SDS011;3259;51.080;13.712;2022-09-21T10:34:58;1.45;;;0.40;;
6452;SDS011;3259;51.080;13.712;2022-09-21T10:38:06;0.60;;;0.30;;
6452;SDS011;3259;51.080;13.712;2022-09-21T10:40:56;0.63;;;0.30;;
6452;SDS011;3259;51.080;13.712;2022-09-21T10:43:45;0.55;;;0.32;;
6452;SDS011;3259;51.080;13.712;2022-09-21T10:46:36;0.57;;;0.30;;
6452;SDS011;3259;51.080;13.712;2022-09-21T10:49:25;0.30;;;0.30;;
6452;SDS011;3259;51.080;13.712;2022-09-21T10:52:15;0.95;;;0.45;;
6452;SDS011;3259;51.080;13.712;2022-09-21T10:55:13;0.20;;;0.20;;
6452;SDS011;3259;51.080;13.712;2022-09-21T10:58:02;1.20;;;0.28;;
6452;SDS011;3259;51.080;13.712;2022-09-21T11:01:08;2.30;;;0.40;;
6452;SDS011;3259;51.080;13.712;2022-09-21T11:03:58;0.28;;;0.28;;
6452;SDS011;3259;51.080;13.712;2022-09-21T11:06:47;1.70;;;0.30;;
6452;SDS011;3259;51.080;13.712;2022-09-21T11:09:40;1.25;;;0.73;;
6452;SDS011;3259;51.080;13.712;2022-09-21T11:12:35;0.30;;;0.28;;
6452;SDS011;3259;51.080;13.712;2022-09-21T11:15:31;0.68;;;0.20;;
6452;SDS011;3259;51.080;13.712;2022-09-21T11:18:29;1.17;;;0.38;;
6452;SDS011;3259;51.080;13.712;2022-09-21T11:21:25;0.22;;;0.22;;
6452;SDS011;3259;51.080;13.712;2022-09-21T11:24:19;0.25;;;0.20;;
6452;SDS011;3259;51.080;13.712;2022-09-21T11:27:14;0.25;;;0.25;;
6452;SDS011;3259;51.080;13.712;2022-09-21T11:30:09;1.38;;;0.20;;
6452;SDS011;3259;51.080;13.712;2022-09-21T11:33:03;0.38;;;0.20;;
6452;SDS011;3259;51.080;13.712;2022-09-21T11:36:03;0.65;;;0.40;;
6452;SDS011;3259;51.080;13.712;2022-09-21T11:38:57;0.40;;;0.40;;
6452;SDS011;3259;51.080;13.712;2022-09-21T11:41:52;1.75;;;0.10;;
6452;SDS011;3259;51.080;13.712;2022-09-21T11:44:49;0.10;;;0.10;;
6452;SDS011;3259;51.080;13.712;2022-09-21T11:47:49;0.32;;;0.10;;
6452;SDS011;3259;51.080;13.712;2022-09-21T11:50:49;0.43;;;0.30;;
6452;SDS011;3259;51.080;13.712;2022-09-21T11:53:58;2.10;;;0.22;;
6452;SDS011;3259;51.080;13.712;2022-09-21T11:56:57;0.20;;;0.20;;
6452;SDS011;3259;51.080;13.712;2022-09-21T11:59:58;0.25;;;0.25;;
6452;SDS011;3259;51.080;13.712;2022-09-21T12:03:09;0.45;;;0.45;;
6452;SDS011;3259;51.080;13.712;2022-09-21T12:06:20;0.15;;;0.15;;
6452;SDS011;3259;51.080;13.712;2022-09-21T12:09:23;1.42;;;0.28;;
6452;SDS011;3259;51.080;13.712;2022-09-21T12:12:31;0.20;;;0.20;;
6452;SDS011;3259;51.080;13.712;2022-09-21T12:15:25;0.20;;;0.20;;
6452;SDS011;3259;51.080;13.712;2022-09-21T12:18:21;0.22;;;0.20;;
6452;SDS011;3259;51.080;13.712;2022-09-21T12:21:15;0.20;;;0.20;;
6452;SDS011;3259;51.080;13.712;2022-09-21T12:24:15;1.15;;;0.28;;
6452;SDS011;3259;51.080;13.712;2022-09-21T12:27:08;0.00;;;0.00;;
6452;SDS011;3259;51.080;13.712;2022-09-21T12:30:10;0.35;;;0.20;;
6452;SDS011;3259;51.080;13.712;2022-09-21T12:33:00;0.10;;;0.10;;
6452;SDS011;3259;51.080;13.712;2022-09-21T12:35:54;0.28;;;0.20;;
6452;SDS011;3259;51.080;13.712;2022-09-21T12:38:48;0.10;;;0.10;;
6452;SDS011;3259;51.080;13.712;2022-09-21T12:41:41;0.30;;;0.30;;
6452;SDS011;3259;51.080;13.712;2022-09-21T12:44:35;0.20;;;0.20;;
6452;SDS011;3259;51.080;13.712;2022-09-21T12:47:43;0.13;;;0.13;;
6452;SDS011;3259;51.080;13.712;2022-09-21T12:50:36;1.00;;;0.20;;
6452;SDS011;3259;51.080;13.712;2022-09-21T12:53:29;0.20;;;0.20;;
6452;SDS011;3259;51.080;13.712;2022-09-21T12:56:21;0.57;;;0.20;;
6452;SDS011;3259;51.080;13.712;2022-09-21T12:59:20;0.90;;;0.17;;
6452;SDS011;3259;51.080;13.712;2022-09-21T13:02:15;0.10;;;0.10;;
6452;SDS011;3259;51.080;13.712;2022-09-21T13:05:09;3.38;;;0.20;;
6452;SDS011;3259;51.080;13.712;2022-09-21T13:08:04;0.20;;;0.20;;
6452;SDS011;3259;51.080;13.712;2022-09-21T13:10:57;0.25;;;0.25;;
6452;SDS011;3259;51.080;13.712;2022-09-21T13:13:50;0.00;;;0.00;;
6452;SDS011;3259;51.080;13.712;2022-09-21T13:16:42;0.70;;;0.20;;
6452;SDS011;3259;51.080;13.712;2022-09-21T13:19:31;1.13;;;0.20;;
6452;SDS011;3259;51.080;13.712;2022-09-21T13:22:21;0.20;;;0.10;;
6452;SDS011;3259;51.080;13.712;2022-09-21T13:25:18;0.10;;;0.10;;
6452;SDS011;3259;51.080;13.712;2022-09-21T13:28:18;12.55;;;0.65;;
6452;SDS011;3259;51.080;13.712;2022-09-21T13:31:28;0.20;;;0.13;;
6452;SDS011;3259;51.080;13.712;2022-09-21T13:34:29;0.25;;;0.20;;
6452;SDS011;3259;51.080;13.712;2022-09-21T13:37:28;2.00;;;0.45;;
6452;SDS011;3259;51.080;13.712;2022-09-21T13:46:55;0.15;;;0.15;;
6452;SDS011;3259;51.080;13.712;2022-09-21T13:49:45;0.77;;;0.22;;
6452;SDS011;3259;51.080;13.712;2022-09-21T13:52:42;0.22;;;0.13;;
6452;SDS011;3259;51.080;13.712;2022-09-21T13:55:32;0.30;;;0.20;;
6452;SDS011;3259;51.080;13.712;2022-09-21T13:58:23;0.35;;;0.10;;
6452;SDS011;3259;51.080;13.712;2022-09-21T14:01:18;0.00;;;0.00;;
6452;SDS011;3259;51.080;13.712;2022-09-21T14:04:28;0.10;;;0.10;;
6452;SDS011;3259;51.080;13.712;2022-09-21T14:07:22;2.22;;;0.10;;
6452;SDS011;3259;51.080;13.712;2022-09-21T14:10:17;0.43;;;0.15;;
6452;SDS011;3259;51.080;13.712;2022-09-21T14:13:21;3.15;;;0.10;;
6452;SDS011;3259;51.080;13.712;2022-09-21T14:19:59;0.03;;;0.03;;
6452;SDS011;3259;51.080;13.712;2022-09-21T14:22:48;4.13;;;0.20;;
6452;SDS011;3259;51.080;13.712;2022-09-21T14:26:18;2.10;;;0.20;;
6452;SDS011;3259;51.080;13.712;2022-09-21T14:29:15;0.68;;;0.20;;
6452;SDS011;3259;51.080;13.712;2022-09-21T14:32:17;0.77;;;0.15;;
6452;SDS011;3259;51.080;13.712;2022-09-21T14:35:12;0.05;;;0.05;;
6452;SDS011;3259;51.080;13.712;2022-09-21T14:38:04;2.08;;;0.20;;
6452;SDS011;3259;51.080;13.712;2022-09-21T14:41:01;0.15;;;0.15;;
6452;SDS011;3259;51.080;13.712;2022-09-21T14:43:53;1.92;;;0.20;;
6452;SDS011;3259;51.080;13.712;2022-09-21T14:46:49;1.95;;;0.15;;
6452;SDS011;3259;51.080;13.712;2022-09-21T14:49:50;0.10;;;0.10;;
6452;SDS011;3259;51.080;13.712;2022-09-21T14:52:58;0.20;;;0.20;;
6452;SDS011;3259;51.080;13.712;2022-09-21T14:55:58;0.68;;;0.38;;
6452;SDS011;3259;51.080;13.712;2022-09-21T14:58:57;0.63;;;0.10;;
6452;SDS011;3259;51.080;13.712;2022-09-21T15:01:54;0.40;;;0.10;;
6452;SDS011;3259;51.080;13.712;2022-09-21T15:04:46;0.20;;;0.20;;
6452;SDS011;3259;51.080;13.712;2022-09-21T15:08:01;0.05;;;0.05;;
6452;SDS011;3259;51.080;13.712;2022-09-21T15:11:19;0.45;;;0.20;;
6452;SDS011;3259;51.080;13.712;2022-09-21T15:14:16;0.10;;;0.10;;
6452;SDS011;3259;51.080;13.712;2022-09-21T15:17:17;0.47;;;0.08;;
6452;SDS011;3259;51.080;13.712;2022-09-21T15:20:14;0.43;;;0.22;;
6452;SDS011;3259;51.080;13.712;2022-09-21T15:23:10;0.10;;;0.10;;
6452;SDS011;3259;51.080;13.712;2022-09-21T15:26:06;0.20;;;0.10;;
6452;SDS011;3259;51.080;13.712;2022-09-21T15:28:59;1.42;;;0.20;;
6452;SDS011;3259;51.080;13.712;2022-09-21T15:31:55;0.57;;;0.20;;
6452;SDS011;3259;51.080;13.712;2022-09-21T15:34:45;0.57;;;0.20;;
6452;SDS011;3259;51.080;13.712;2022-09-21T15:37:34;0.20;;;0.15;;
6452;SDS011;3259;51.080;13.712;2022-09-21T15:40:25;2.72;;;0.20;;
6452;SDS011;3259;51.080;13.712;2022-09-21T15:43:15;0.20;;;0.20;;
6452;SDS011;3259;51.080;13.712;2022-09-21T15:46:08;1.35;;;0.20;;
6452;SDS011;3259;51.080;13.712;2022-09-21T15:48:58;0.40;;;0.40;;
6452;SDS011;3259;51.080;13.712;2022-09-21T15:51:47;0.25;;;0.25;;
6452;SDS011;3259;51.080;13.712;2022-09-21T15:54:39;0.47;;;0.30;;
6452;SDS011;3259;51.080;13.712;2022-09-21T15:57:32;0.68;;;0.68;;
6452;SDS011;3259;51.080;13.712;2022-09-21T16:00:25;3.50;;;0.98;;
6452;SDS011;3259;51.080;13.712;2022-09-21T16:03:18;0.50;;;0.50;;
6452;SDS011;3259;51.080;13.712;2022-09-21T16:06:21;3.67;;;0.95;;
6452;SDS011;3259;51.080;13.712;2022-09-21T16:09:27;95.55;;;4.55;;
6452;SDS011;3259;51.080;13.712;2022-09-21T16:12:31;64.57;;;3.63;;
6452;SDS011;3259;51.080;13.712;2022-09-21T16:15:25;9.77;;;1.20;;
6452;SDS011;3259;51.080;13.712;2022-09-21T16:18:28;53.45;;;4.07;;
6452;SDS011;3259;51.080;13.712;2022-09-21T16:21:21;19.10;;;2.55;;
6452;SDS011;3259;51.080;13.712;2022-09-21T16:24:15;9.52;;;2.10;;
6452;SDS011;3259;51.080;13.712;2022-09-21T16:27:05;13.52;;;1.45;;
6452;SDS011;3259;51.080;13.712;2022-09-21T16:29:56;5.97;;;1.20;;
6452;SDS011;3259;51.080;13.712;2022-09-21T16:32:45;12.25;;;1.27;;
6452;SDS011;3259;51.080;13.712;2022-09-21T16:35:39;13.45;;;1.40;;
6452;SDS011;3259;51.080;13.712;2022-09-21T16:38:27;9.60;;;1.92;;
6452;SDS011;3259;51.080;13.712;2022-09-21T16:41:15;14.30;;;1.67;;
6452;SDS011;3259;51.080;13.712;2022-09-21T16:44:04;4.53;;;1.15;;
6452;SDS011;3259;51.080;13.712;2022-09-21T16:46:54;1.77;;;1.05;;
6452;SDS011;3259;51.080;13.712;2022-09-21T16:49:45;6.28;;;1.42;;
6452;SDS011;3259;51.080;13.712;2022-09-21T16:52:34;2.25;;;0.90;;
6452;SDS011;3259;51.080;13.712;2022-09-21T16:55:23;7.13;;;1.70;;
6452;SDS011;3259;51.080;13.712;2022-09-21T16:58:14;6.47;;;1.33;;
6452;SDS011;3259;51.080;13.712;2022-09-21T17:01:06;2.00;;;1.00;;
6452;SDS011;3259;51.080;13.712;2022-09-21T17:03:55;5.68;;;1.70;;
6452;SDS011;3259;51.080;13.712;2022-09-21T17:06:44;1.50;;;1.25;;
6452;SDS011;3259;51.080;13.712;2022-09-21T17:09:34;4.85;;;1.17;;
6452;SDS011;3259;51.080;13.712;2022-09-21T17:12:24;2.65;;;1.30;;
6452;SDS011;3259;51.080;13.712;2022-09-21T17:15:13;2.90;;;1.70;;
6452;SDS011;3259;51.080;13.712;2022-09-21T17:18:02;8.55;;;2.53;;
6452;SDS011;3259;51.080;13.712;2022-09-21T17:20:51;2.92;;;2.58;;
6452;SDS011;3259;51.080;13.712;2022-09-21T17:23:40;3.40;;;2.85;;
6452;SDS011;3259;51.080;13.712;2022-09-21T17:26:30;7.00;;;3.53;;
6452;SDS011;3259;51.080;13.712;2022-09-21T17:29:21;5.55;;;3.50;;
6452;SDS011;3259;51.080;13.712;2022-09-21T17:32:12;14.50;;;6.95;;
6452;SDS011;3259;51.080;13.712;2022-09-21T17:35:09;26.98;;;14.93;;
6452;SDS011;3259;51.080;13.712;2022-09-21T17:38:02;23.70;;;9.88;;
6452;SDS011;3259;51.080;13.712;2022-09-21T17:40:50;13.20;;;7.07;;
6452;SDS011;3259;51.080;13.712;2022-09-21T17:43:42;6.95;;;5.95;;
6452;SDS011;3259;51.080;13.712;2022-09-21T17:46:39;9.20;;;5.88;;
6452;SDS011;3259;51.080;13.712;2022-09-21T17:49:35;7.00;;;5.07;;
6452;SDS011;3259;51.080;13.712;2022-09-21T17:52:24;5.78;;;4.20;;